Time;durP1;ratioP1;P1;durP2;ratioP2;P2;SDS_P1;SDS_P2;PMS_P1;PMS_P2;Temp;Humidity;BMP_temperature;BMP_pressure;BME280_temperature;BME280_humidity;BME280_pressure;Samples;Min_cycle;Max_cycle;Signal;HPM_P1;HPM_P2
2021/07/01 00:00:52;;;;;;;8.55;6.30;;;;;;;22.67;52.16;99462.25;3623600;39;20425;-50
2021/07/01 00:03:32;;;;;;;8.43;6.82;;;;;;;22.65;51.78;99456.22;3643879;39;20427;-52
2021/07/01 00:06:14;;;;;;;7.75;6.82;;;;;;;22.64;51.68;99454.56;3630492;39;20830;-50
2021/07/01 00:08:56;;;;;;;7.50;6.75;;;;;;;22.63;51.66;99447.53;3613299;39;20812;-52
2021/07/01 00:11:35;;;;;;;8.05;7.10;;;;;;;22.61;52.06;99454.88;3623396;39;20442;-52
2021/07/01 00:14:18;;;;;;;8.13;6.95;;;;;;;22.59;52.25;99456.84;3623579;39;20417;-47
2021/07/01 00:16:58;;;;;;;8.82;6.88;;;;;;;22.55;52.20;99461.66;3623470;39;20417;-48
2021/07/01 00:19:38;;;;;;;8.77;6.65;;;;;;;22.50;52.33;99459.47;3623593;39;20441;-54
2021/07/01 00:22:18;;;;;;;7.35;6.50;;;;;;;22.48;52.25;99461.44;3623574;39;20816;-53
2021/07/01 00:24:58;;;;;;;7.57;6.72;;;;;;;22.46;52.54;99457.25;3623350;39;20461;-52
2021/07/01 00:27:38;;;;;;;7.63;5.80;;;;;;;22.44;52.14;99459.22;3623601;39;20410;-49
2021/07/01 00:30:19;;;;;;;7.38;6.22;;;;;;;22.42;52.23;99458.53;3643944;39;20435;-52
2021/07/01 00:32:59;;;;;;;7.40;5.85;;;;;;;22.41;52.69;99451.53;3623559;39;20417;-52
2021/07/01 00:35:38;;;;;;;7.18;5.35;;;;;;;22.39;52.92;99443.66;3633647;39;20435;-48
2021/07/01 00:38:20;;;;;;;7.32;5.88;;;;;;;22.39;52.52;99445.50;3624447;39;20422;-48
2021/07/01 00:41:01;;;;;;;7.22;6.28;;;;;;;22.38;52.53;99433.16;3633951;39;20671;-47
2021/07/01 00:43:41;;;;;;;7.93;6.05;;;;;;;22.36;52.65;99437.81;3623508;39;20426;-48
2021/07/01 00:46:21;;;;;;;7.05;6.13;;;;;;;22.35;52.97;99434.28;3623538;39;20433;-53
2021/07/01 00:49:04;;;;;;;6.88;6.18;;;;;;;22.32;52.59;99429.25;3623488;39;20699;-50
2021/07/01 00:51:48;;;;;;;6.50;5.90;;;;;;;22.29;53.39;99437.59;3623778;39;20669;-48
2021/07/01 00:54:30;;;;;;;7.85;5.63;;;;;;;22.25;53.02;99435.34;3633611;39;20122;-47
2021/07/01 00:57:11;;;;;;;7.00;5.82;;;;;;;22.20;53.40;99425.13;3644207;39;20550;-49
2021/07/01 00:59:52;;;;;;;7.47;6.22;;;;;;;22.15;53.44;99432.78;3623527;39;20433;-47
2021/07/01 01:02:31;;;;;;;6.53;5.90;;;;;;;22.11;53.70;99420.72;3644187;39;20411;-49
2021/07/01 01:05:11;;;;;;;7.15;6.43;;;;;;;22.08;53.69;99421.88;3623634;39;20433;-50
2021/07/01 01:07:51;;;;;;;7.03;6.32;;;;;;;22.04;53.85;99427.59;3640048;39;20424;-47
2021/07/01 01:10:32;;;;;;;12.82;6.63;;;;;;;21.99;53.97;99432.56;3624283;39;20445;-48
2021/07/01 01:13:12;;;;;;;7.22;6.47;;;;;;;21.93;54.17;99434.03;3623619;39;20429;-49
2021/07/01 01:15:53;;;;;;;6.97;6.18;;;;;;;21.88;54.24;99429.16;3644331;39;20713;-50
2021/07/01 01:18:34;;;;;;;8.05;6.57;;;;;;;21.83;54.38;99415.41;3644090;39;20435;-50
2021/07/01 01:21:17;;;;;;;10.07;6.55;;;;;;;21.80;54.65;99409.53;3623327;39;20418;-47
2021/07/01 01:23:59;;;;;;;7.13;6.43;;;;;;;21.78;54.29;99400.84;3644075;39;20125;-50
2021/07/01 01:26:39;;;;;;;9.88;7.10;;;;;;;21.77;54.75;99407.16;3644150;39;20422;-52
2021/07/01 01:29:22;;;;;;;8.25;6.78;;;;;;;21.78;55.05;99403.50;3644160;39;20427;-50
2021/07/01 01:32:03;;;;;;;10.15;7.22;;;;;;;21.78;54.80;99408.84;3644596;39;20415;-48
2021/07/01 01:34:43;;;;;;;10.40;6.93;;;;;;;21.78;55.05;99408.84;3644801;39;20482;-49
2021/07/01 01:37:23;;;;;;;10.13;7.10;;;;;;;21.77;54.86;99412.50;3624303;39;20421;-47
2021/07/01 01:40:03;;;;;;;11.43;6.95;;;;;;;21.77;55.17;99410.66;3634397;39;20468;-46
2021/07/01 01:42:44;;;;;;;10.00;8.20;;;;;;;21.76;54.78;99410.81;3623963;39;20426;-47
2021/07/01 01:45:24;;;;;;;9.15;7.57;;;;;;;21.74;54.62;99418.97;3625053;39;20442;-47
2021/07/01 01:48:04;;;;;;;12.10;8.02;;;;;;;21.73;54.67;99419.13;3624255;31;20820;-48
2021/07/01 01:50:46;;;;;;;8.77;7.35;;;;;;;21.71;54.69;99413.09;3644722;39;20435;-51
2021/07/01 01:53:27;;;;;;;10.65;7.68;;;;;;;21.70;55.15;99412.28;3634433;39;20459;-49
2021/07/01 01:56:06;;;;;;;8.27;7.47;;;;;;;21.69;55.29;99409.75;3593529;39;20681;-48
2021/07/01 01:58:46;;;;;;;10.07;6.97;;;;;;;21.68;54.69;99402.75;3644985;39;20422;-48
2021/07/01 02:01:26;;;;;;;8.15;6.70;;;;;;;21.66;55.19;99407.38;3624990;39;20465;-48
2021/07/01 02:04:06;;;;;;;7.20;6.47;;;;;;;21.64;55.02;99409.34;3644820;39;20812;-50
2021/07/01 02:06:46;;;;;;;8.00;7.00;;;;;;;21.60;55.43;99412.31;3613818;39;20443;-50
2021/07/01 02:09:25;;;;;;;7.18;6.45;;;;;;;21.58;55.26;99413.44;3624066;39;20789;-49
2021/07/01 02:12:06;;;;;;;7.80;7.00;;;;;;;21.56;55.51;99412.75;3624152;39;20425;-52
2021/07/01 02:14:47;;;;;;;7.45;6.65;;;;;;;21.55;55.18;99413.75;3634660;39;20436;-48
2021/07/01 02:17:26;;;;;;;7.47;6.70;;;;;;;21.53;55.63;99415.72;3624298;39;20448;-48
2021/07/01 02:20:08;;;;;;;7.50;6.70;;;;;;;21.52;55.61;99414.91;3644827;39;20438;-53
2021/07/01 02:22:49;;;;;;;8.70;6.97;;;;;;;21.51;55.47;99417.72;3624379;39;20675;-53
2021/07/01 02:25:29;;;;;;;9.65;7.45;;;;;;;21.50;55.43;99411.53;3645128;39;20447;-51
2021/07/01 02:28:09;;;;;;;25.45;7.45;;;;;;;21.50;55.43;99410.69;3644892;39;20431;-50
2021/07/01 02:30:49;;;;;;;8.88;7.75;;;;;;;21.50;55.48;99410.69;3624416;39;20457;-53
2021/07/01 02:33:29;;;;;;;8.93;6.90;;;;;;;21.49;55.88;99417.88;3624755;39;20426;-51
2021/07/01 02:36:08;;;;;;;8.35;6.95;;;;;;;21.49;55.96;99409.88;3644957;39;20454;-48
2021/07/01 02:38:48;;;;;;;10.65;7.30;;;;;;;21.49;55.56;99417.03;3645089;39;20435;-48
2021/07/01 02:41:28;;;;;;;8.73;7.40;;;;;;;21.47;56.06;99422.50;3624445;39;20681;-49
2021/07/01 02:44:08;;;;;;;8.98;7.82;;;;;;;21.48;56.09;99428.69;3645136;39;20431;-51
2021/07/01 02:46:47;;;;;;;9.30;8.15;;;;;;;21.48;56.00;99424.19;3645178;39;20438;-49
2021/07/01 02:49:27;;;;;;;8.90;7.32;;;;;;;21.47;55.58;99421.66;3624442;39;20425;-51
2021/07/01 02:52:07;;;;;;;10.32;7.63;;;;;;;21.45;56.02;99424.50;3644925;39;20823;-46
2021/07/01 02:54:47;;;;;;;7.43;6.55;;;;;;;21.44;56.16;99420.13;3624145;39;20449;-49
2021/07/01 02:57:27;;;;;;;9.35;7.72;;;;;;;21.44;55.46;99428.09;3644939;39;20688;-48
2021/07/01 03:00:09;;;;;;;9.45;7.75;;;;;;;21.43;55.81;99436.25;3624140;39;20433;-50
2021/07/01 03:02:50;;;;;;;8.00;7.20;;;;;;;21.42;55.86;99432.75;3645055;39;20426;-50
2021/07/01 03:05:29;;;;;;;8.00;7.15;;;;;;;21.41;55.93;99436.41;3644928;39;20442;-48
2021/07/01 03:08:09;;;;;;;8.57;6.95;;;;;;;21.41;55.68;99435.56;3644943;39;20431;-49
2021/07/01 03:10:49;;;;;;;8.63;7.45;;;;;;;21.42;55.97;99432.75;3638400;39;20440;-52
2021/07/01 03:13:30;;;;;;;9.55;7.28;;;;;;;21.44;56.08;99433.44;3644804;39;20442;-47
2021/07/01 03:16:10;;;;;;;9.20;7.03;;;;;;;21.45;56.11;99445.81;3641165;39;20845;-49
2021/07/01 03:18:52;;;;;;;10.80;7.35;;;;;;;21.47;56.10;99437.66;3623249;39;20435;-51
2021/07/01 03:21:32;;;;;;;9.10;8.10;;;;;;;21.47;55.74;99435.84;3634697;39;20541;-49
2021/07/01 03:24:13;;;;;;;9.40;7.25;;;;;;;21.49;55.82;99451.69;3622710;39;20433;-52
2021/07/01 03:26:53;;;;;;;16.02;8.50;;;;;;;21.52;55.81;99456.72;3633931;39;20440;-48
2021/07/01 03:29:34;;;;;;;9.80;8.35;;;;;;;21.55;56.04;99456.44;3626746;39;20402;-51
2021/07/01 03:32:14;;;;;;;7.82;6.80;;;;;;;21.59;55.53;99471.13;3623126;39;20433;-49
2021/07/01 03:34:57;;;;;;;11.95;7.00;;;;;;;21.62;55.73;99460.16;3621348;39;20474;-49
2021/07/01 03:37:37;;;;;;;8.93;6.85;;;;;;;21.66;55.82;99458.06;3623712;39;20847;-48
2021/07/01 03:40:20;;;;;;;13.35;9.57;;;;;;;21.70;55.51;99454.13;3614797;39;20466;-47
2021/07/01 03:43:02;;;;;;;9.15;7.85;;;;;;;21.74;55.59;99452.81;3620682;39;20509;-48
2021/07/01 03:45:43;;;;;;;11.38;7.15;;;;;;;21.76;55.44;99454.34;3639645;39;20448;-49
2021/07/01 03:48:25;;;;;;;9.15;6.68;;;;;;;21.81;55.09;99451.22;3634447;39;20762;-52
2021/07/01 03:51:06;;;;;;;9.13;6.85;;;;;;;21.83;55.38;99452.75;3624171;39;20115;-49
2021/07/01 03:53:47;;;;;;;15.10;11.48;;;;;;;21.90;55.25;99461.00;3644920;39;20430;-56
2021/07/01 03:56:40;;;;;;;10.75;7.32;;;;;;;21.95;54.75;99458.72;3641891;39;20713;-54
2021/07/01 03:59:21;;;;;;;7.20;6.47;;;;;;;22.03;54.53;99455.28;3634579;39;20424;-52
2021/07/01 04:02:01;;;;;;;6.13;5.45;;;;;;;22.09;54.86;99452.91;3635968;39;20428;-52
2021/07/01 04:04:42;;;;;;;7.35;6.15;;;;;;;22.17;54.51;99463.66;3643869;31;20435;-56
2021/07/01 04:07:25;;;;;;;6.50;5.70;;;;;;;22.31;54.54;99464.13;3644324;31;20452;-52
2021/07/01 04:10:07;;;;;;;5.30;4.53;;;;;;;22.45;54.10;99460.91;3631423;39;20449;-63
2021/07/01 04:12:48;;;;;;;5.40;4.88;;;;;;;22.63;53.96;99458.22;3645222;39;20415;-58
2021/07/01 04:15:28;;;;;;;5.40;4.90;;;;;;;22.84;53.55;99445.38;3640397;39;20436;-57
2021/07/01 04:18:12;;;;;;;5.90;4.85;;;;;;;23.13;53.18;99445.09;3624178;39;20433;-57
2021/07/01 04:20:52;;;;;;;6.88;5.30;;;;;;;23.33;52.11;99446.53;3638190;39;20428;-45
2021/07/01 04:23:32;;;;;;;6.68;4.90;;;;;;;23.47;51.74;99442.41;3634054;39;20463;-52
2021/07/01 04:26:13;;;;;;;8.18;5.10;;;;;;;23.59;51.58;99440.31;3643642;39;20765;-55
2021/07/01 04:28:53;;;;;;;7.93;5.15;;;;;;;23.66;51.28;99436.81;3644615;39;20832;-56
2021/07/01 04:31:34;;;;;;;6.05;5.00;;;;;;;23.74;50.44;99444.06;3641396;31;20704;-52
2021/07/01 04:34:14;;;;;;;6.88;5.03;;;;;;;23.81;50.31;99436.19;3623980;39;20437;-57
2021/07/01 04:36:54;;;;;;;6.22;4.90;;;;;;;23.88;49.99;99442.56;3620939;39;20438;-44
2021/07/01 04:39:34;;;;;;;5.45;4.80;;;;;;;23.94;49.90;99444.56;3633291;39;20424;-56
2021/07/01 04:42:14;;;;;;;6.13;4.88;;;;;;;23.98;49.79;99446.78;3644658;39;20435;-57
2021/07/01 04:44:53;;;;;;;7.38;5.10;;;;;;;24.00;49.53;99447.47;3640676;39;20428;-57
2021/07/01 04:47:33;;;;;;;4.97;4.32;;;;;;;24.03;49.34;99449.81;3619576;39;20438;-53
2021/07/01 04:50:13;;;;;;;5.70;4.53;;;;;;;24.08;48.83;99453.81;3621972;39;20441;-55
2021/07/01 04:52:54;;;;;;;5.32;4.10;;;;;;;24.11;49.04;99457.00;3634181;39;20851;-53
2021/07/01 04:55:34;;;;;;;8.60;5.32;;;;;;;24.14;48.97;99463.88;3634712;39;20427;-54
2021/07/01 04:58:14;;;;;;;8.88;5.25;;;;;;;24.13;48.80;99467.56;3644544;39;20431;-60
2021/07/01 05:00:54;;;;;;;9.05;4.53;;;;;;;24.08;48.39;99467.22;3617578;39;20443;-58
2021/07/01 05:03:34;;;;;;;5.18;4.53;;;;;;;24.02;48.11;99472.22;3613740;39;20451;-56
2021/07/01 05:06:13;;;;;;;6.85;4.45;;;;;;;24.01;48.24;99467.03;3620415;39;20437;-57
2021/07/01 05:08:53;;;;;;;6.15;4.30;;;;;;;23.99;48.65;99469.88;3633426;39;20440;-56
2021/07/01 05:11:34;;;;;;;4.78;4.00;;;;;;;23.97;48.30;99468.38;3614563;39;20695;-54
2021/07/01 05:14:13;;;;;;;6.85;4.35;;;;;;;23.95;48.48;99473.91;3630138;39;20449;-54
2021/07/01 05:16:53;;;;;;;6.00;4.40;;;;;;;23.94;48.74;99485.56;3624196;39;20441;-55
2021/07/01 05:19:33;;;;;;;6.22;4.30;;;;;;;23.93;48.55;99480.38;3623368;39;20430;-56
2021/07/01 05:22:12;;;;;;;6.70;4.25;;;;;;;23.93;48.74;99480.38;3604182;39;20447;-54
2021/07/01 05:24:52;;;;;;;4.30;3.90;;;;;;;23.93;48.54;99481.22;3644060;39;20434;-57
2021/07/01 05:27:32;;;;;;;5.88;4.18;;;;;;;23.96;48.59;99485.44;3629873;39;20445;-55
2021/07/01 05:30:14;;;;;;;4.80;4.30;;;;;;;24.00;49.32;99494.81;3616372;39;20441;-54
2021/07/01 05:32:53;;;;;;;6.32;4.18;;;;;;;24.09;48.76;99491.16;3641823;39;20698;-56
2021/07/01 05:35:34;;;;;;;8.02;4.60;;;;;;;24.18;48.72;99490.19;3636527;39;20705;-58
2021/07/01 05:38:15;;;;;;;5.47;4.50;;;;;;;24.24;48.65;99502.06;3611435;39;20688;-56
2021/07/01 05:40:56;;;;;;;4.70;4.20;;;;;;;24.25;48.08;99490.34;3642059;39;20442;-49
2021/07/01 05:43:36;;;;;;;4.57;4.18;;;;;;;24.26;48.04;99486.66;3643609;39;20455;-49
2021/07/01 05:46:17;;;;;;;6.65;4.25;;;;;;;24.25;47.89;99488.50;3635367;39;20480;-50
2021/07/01 05:48:59;;;;;;;5.15;4.20;;;;;;;24.24;47.66;99480.63;3622375;39;20478;-52
2021/07/01 05:51:41;;;;;;;8.18;4.85;;;;;;;24.26;48.23;99481.31;3629831;39;20450;-55
2021/07/01 05:54:26;;;;;;;5.22;4.72;;;;;;;24.25;48.06;99483.16;3618975;39;20446;-49
2021/07/01 05:57:07;;;;;;;7.65;4.68;;;;;;;24.26;48.54;99484.00;3640867;39;20430;-48
2021/07/01 05:59:48;;;;;;;6.10;4.60;;;;;;;24.25;48.32;99490.34;3616650;39;20449;-47
2021/07/01 06:02:30;;;;;;;5.82;4.40;;;;;;;24.21;48.59;99484.50;3630630;39;20439;-50
2021/07/01 06:05:11;;;;;;;10.77;4.65;;;;;;;24.19;48.60;99485.66;3627710;39;20441;-48
2021/07/01 06:07:53;;;;;;;8.40;4.35;;;;;;;24.23;48.57;99484.31;3639312;39;20681;-49
2021/07/01 06:10:36;;;;;;;8.30;4.70;;;;;;;24.34;48.57;99484.03;3637995;39;20420;-50
2021/07/01 06:13:22;;;;;;;6.55;4.60;;;;;;;24.46;48.52;99474.66;3639841;39;20695;-52
2021/07/01 06:16:03;;;;;;;4.07;3.58;;;;;;;24.61;48.40;99486.41;3639007;39;20432;-52
2021/07/01 06:18:43;;;;;;;4.13;3.72;;;;;;;24.77;47.54;99480.19;3639864;31;20506;-50
2021/07/01 06:21:24;;;;;;;4.97;4.07;;;;;;;24.96;47.26;99479.00;3641409;39;20745;-51
2021/07/01 06:24:04;;;;;;;5.30;3.85;;;;;;;25.18;47.07;99466.75;3640990;39;20431;-53
2021/07/01 06:26:46;;;;;;;3.20;2.88;;;;;;;25.51;45.57;99471.03;3632282;39;20493;-52
2021/07/01 06:29:27;;;;;;;4.55;2.90;;;;;;;25.91;44.78;99471.06;3635184;39;20685;-50
2021/07/01 06:32:08;;;;;;;5.43;3.85;;;;;;;26.40;43.70;99466.22;3621634;39;20429;-51
2021/07/01 06:34:47;;;;;;;9.48;3.13;;;;;;;27.09;42.51;99463.50;3632862;39;20436;-51
2021/07/01 06:37:32;;;;;;;3.50;2.88;;;;;;;28.06;41.80;99459.59;3638910;39;20467;-52
2021/07/01 06:40:14;;;;;;;3.47;3.17;;;;;;;29.51;39.78;99472.72;3632957;39;20444;-49
2021/07/01 06:42:56;;;;;;;3.30;3.00;;;;;;;31.06;37.69;99467.28;3630899;39;20445;-53
2021/07/01 06:45:37;;;;;;;4.10;3.42;;;;;;;32.49;34.67;99463.47;3627543;39;20239;-52
2021/07/01 06:48:18;;;;;;;3.20;2.90;;;;;;;33.22;32.91;99465.56;3621307;39;20468;-50
2021/07/01 06:50:59;;;;;;;3.90;3.17;;;;;;;33.89;31.67;99458.34;3603545;39;20447;-50
2021/07/01 06:53:41;;;;;;;5.07;3.25;;;;;;;34.40;30.42;99466.03;3635925;39;20424;-50
2021/07/01 06:56:22;;;;;;;10.07;3.63;;;;;;;34.48;29.67;99467.59;3639324;31;20833;-51
2021/07/01 06:59:02;;;;;;;5.55;3.70;;;;;;;34.39;28.40;99466.28;3642285;31;20432;-52
2021/07/01 07:01:42;;;;;;;3.78;3.42;;;;;;;34.13;28.65;99465.53;3592774;39;20704;-53
2021/07/01 07:04:24;;;;;;;3.60;3.30;;;;;;;33.80;28.20;99470.56;3644017;39;20477;-49
2021/07/01 07:07:05;;;;;;;4.47;3.10;;;;;;;34.01;28.82;99472.84;3626267;39;20430;-54
2021/07/01 07:09:46;;;;;;;2.88;2.55;;;;;;;34.77;28.26;99465.84;3634111;39;20711;-54
2021/07/01 07:12:39;;;;;;;2.88;2.58;;;;;;;35.77;27.30;99470.34;3616586;39;20450;-52
2021/07/01 07:15:25;;;;;;;2.65;2.30;;;;;;;36.81;26.08;99469.06;3642277;39;20704;-49
2021/07/01 07:18:12;;;;;;;3.78;2.38;;;;;;;37.88;24.85;99467.03;3639274;39;20837;-51
2021/07/01 07:20:55;;;;;;;2.65;2.45;;;;;;;38.88;23.53;99463.66;3620332;39;20466;-52
2021/07/01 07:23:37;;;;;;;3.90;2.47;;;;;;;39.74;21.91;99454.31;3618850;39;20465;-53
2021/07/01 07:26:21;;;;;;;3.10;2.47;;;;;;;40.26;21.16;99461.63;3618421;39;20434;-55
2021/07/01 07:29:02;;;;;;;3.55;2.70;;;;;;;40.58;20.70;99464.97;3642363;39;20837;-53
2021/07/01 07:31:45;;;;;;;2.60;2.40;;;;;;;40.79;19.62;99471.28;3610946;39;20478;-55
2021/07/01 07:34:27;;;;;;;4.57;2.40;;;;;;;41.00;18.98;99467.44;3632662;39;20770;-54
2021/07/01 07:37:08;;;;;;;2.15;1.98;;;;;;;41.01;18.24;99473.75;3610234;39;20443;-54
2021/07/01 07:39:48;;;;;;;2.85;2.38;;;;;;;40.97;18.85;99472.69;3605700;39;1459430;-54
2021/07/01 07:42:28;;;;;;;2.63;2.20;;;;;;;41.23;18.24;99471.53;3641450;39;20458;-51
2021/07/01 07:45:09;;;;;;;3.25;2.33;;;;;;;41.66;17.99;99472.84;3630045;39;20444;-53
2021/07/01 07:47:49;;;;;;;2.78;2.28;;;;;;;42.03;18.04;99466.03;3642324;39;20431;-53
2021/07/01 07:50:30;;;;;;;3.50;2.70;;;;;;;42.29;17.35;99462.03;3629994;39;20449;-53
2021/07/01 07:53:17;;;;;;;2.65;2.40;;;;;;;42.38;16.90;99456.72;3642898;39;20458;-51
2021/07/01 07:56:02;;;;;;;2.53;2.33;;;;;;;42.53;16.89;99456.66;3634189;39;20471;-54
2021/07/01 07:58:48;;;;;;;2.28;2.05;;;;;;;42.87;16.30;99464.06;3613378;39;20933;-48
2021/07/01 08:01:32;;;;;;;3.13;2.25;;;;;;;43.18;16.16;99468.19;3630232;39;20707;-48
2021/07/01 08:04:16;;;;;;;3.20;2.28;;;;;;;43.43;15.76;99463.53;3641143;39;21064;-53
2021/07/01 08:06:57;;;;;;;2.42;2.17;;;;;;;43.65;15.36;99461.03;3642347;39;20446;-53
2021/07/01 08:09:39;;;;;;;3.15;2.00;;;;;;;43.84;15.66;99474.06;3639048;39;20446;-55
2021/07/01 08:12:21;;;;;;;4.32;2.30;;;;;;;43.97;15.28;99474.19;3632419;39;20724;-54
2021/07/01 08:15:03;;;;;;;4.97;2.30;;;;;;;44.19;15.00;99475.56;3609051;39;20440;-56
2021/07/01 08:17:44;;;;;;;2.50;2.30;;;;;;;44.36;14.97;99479.44;3623881;39;20407;-54
2021/07/01 08:20:25;;;;;;;2.10;1.90;;;;;;;44.44;14.72;99479.84;3608810;39;20464;-49
2021/07/01 08:23:06;;;;;;;2.63;2.10;;;;;;;44.68;14.27;99480.59;3635121;39;20426;-49
2021/07/01 08:25:47;;;;;;;2.97;2.30;;;;;;;45.05;13.99;99474.16;3633735;39;20444;-50
2021/07/01 08:28:30;;;;;;;2.38;2.15;;;;;;;45.45;13.62;99475.34;3622353;31;20820;-50
2021/07/01 08:31:12;;;;;;;1.80;1.70;;;;;;;45.84;13.03;99457.38;3640156;39;20446;-53
2021/07/01 08:33:54;;;;;;;3.28;2.08;;;;;;;46.21;12.48;99458.22;3614824;39;20442;-53
2021/07/01 08:36:37;;;;;;;2.08;1.90;;;;;;;46.43;12.27;99458.25;3623705;39;20429;-53
2021/07/01 08:39:21;;;;;;;2.33;2.13;;;;;;;46.36;12.28;99467.00;3635220;39;20434;-53
2021/07/01 08:42:05;;;;;;;2.15;1.95;;;;;;;46.03;12.51;99458.09;3629688;39;20389;-54
2021/07/01 08:44:46;;;;;;;2.40;2.20;;;;;;;45.49;12.75;99459.75;3619714;39;20872;-52
2021/07/01 08:47:32;;;;;;;2.30;2.10;;;;;;;44.91;13.27;99471.34;3634433;39;20436;-53
2021/07/01 08:50:16;;;;;;;3.88;2.05;;;;;;;44.29;13.65;99467.91;3618329;39;20436;-53
2021/07/01 08:53:04;;;;;;;2.50;2.28;;;;;;;43.66;14.39;99468.19;3615245;39;20431;-50
2021/07/01 08:55:44;;;;;;;3.10;2.20;;;;;;;43.07;14.49;99477.66;3604673;39;1425122;-53
2021/07/01 08:58:25;;;;;;;3.22;2.08;;;;;;;42.52;14.75;99476.22;3640467;39;20424;-51
2021/07/01 09:01:06;;;;;;;2.40;2.17;;;;;;;42.12;15.57;99477.31;3636271;39;20459;-48
2021/07/01 09:03:48;;;;;;;3.10;2.17;;;;;;;41.77;15.51;99476.34;3608367;39;20495;-53
2021/07/01 09:06:36;;;;;;;2.42;2.22;;;;;;;41.53;15.97;99476.16;3608197;39;20710;-54
2021/07/01 09:09:20;;;;;;;2.35;2.05;;;;;;;41.28;16.22;99470.72;3634711;39;20420;-49
2021/07/01 09:12:04;;;;;;;3.65;3.00;;;;;;;41.10;16.53;99474.88;3633054;39;20663;-52
2021/07/01 09:14:45;;;;;;;2.50;2.30;;;;;;;40.99;16.40;99487.78;3603940;39;20446;-51
2021/07/01 09:17:30;;;;;;;3.40;2.55;;;;;;;40.92;17.00;99491.94;3617556;39;20453;-54
2021/07/01 09:20:18;;;;;;;2.30;2.10;;;;;;;40.90;16.67;99494.13;3630621;39;20661;-50
2021/07/01 09:23:01;;;;;;;3.70;2.33;;;;;;;40.83;16.92;99488.09;3631752;39;20198;-52
2021/07/01 09:25:46;;;;;;;2.28;2.03;;;;;;;40.67;17.01;99496.31;3629659;31;20476;-51
2021/07/01 09:28:27;;;;;;;2.65;2.00;;;;;;;40.18;16.98;99498.66;3641823;39;20432;-54
2021/07/01 09:31:14;;;;;;;2.28;2.08;;;;;;;39.61;17.42;99497.63;3636879;39;20447;-51
2021/07/01 09:34:01;;;;;;;5.57;2.10;;;;;;;39.06;17.84;99502.72;3629806;39;20445;-50
2021/07/01 09:37:21;;;;;;;3.10;2.47;;;;;;;38.57;18.62;99494.63;3618749;39;20831;-53
2021/07/01 09:40:03;;;;;;;2.67;2.17;;;;;;;38.28;18.61;99486.66;3622096;39;20411;-53
2021/07/01 09:42:44;;;;;;;3.40;2.17;;;;;;;38.07;19.29;99477.38;3633120;39;20445;-48
2021/07/01 09:45:28;;;;;;;2.38;2.13;;;;;;;37.91;19.82;99475.56;3608262;39;20459;-53
2021/07/01 09:48:11;;;;;;;2.45;1.92;;;;;;;37.78;19.93;99468.56;3637775;31;20423;-49
2021/07/01 09:50:54;;;;;;;2.13;1.95;;;;;;;37.65;20.07;99455.25;3611908;39;20431;-54
2021/07/01 09:53:35;;;;;;;3.47;2.17;;;;;;;37.52;20.26;99458.38;3640748;39;20474;-55
2021/07/01 09:56:24;;;;;;;2.50;2.28;;;;;;;37.37;20.39;99452.69;3618890;39;20691;-54
2021/07/01 09:59:07;;;;;;;4.47;3.70;;;;;;;37.16;20.48;99444.19;3641101;39;20678;-51
2021/07/01 10:01:48;;;;;;;2.67;2.13;;;;;;;36.92;20.52;99435.38;3606675;39;20442;-53
2021/07/01 10:04:36;;;;;;;3.45;2.38;;;;;;;36.67;20.70;99445.88;3640378;39;20442;-51
2021/07/01 10:07:17;;;;;;;3.90;2.50;;;;;;;36.42;21.58;99440.78;3641496;39;20435;-49
2021/07/01 10:09:59;;;;;;;5.45;2.20;;;;;;;36.20;21.59;99450.75;3609336;39;20435;-49
2021/07/01 10:12:50;;;;;;;2.40;2.20;;;;;;;35.90;21.48;99446.38;3640776;39;20454;-48
2021/07/01 10:15:31;;;;;;;3.45;2.30;;;;;;;35.60;22.46;99443.81;3639504;39;20432;-50
2021/07/01 10:18:15;;;;;;;3.85;2.33;;;;;;;35.33;22.80;99446.22;3639906;39;20457;-54
2021/07/01 10:20:57;;;;;;;2.97;2.20;;;;;;;35.06;22.76;99447.78;3636224;39;20519;-54
2021/07/01 10:23:41;;;;;;;2.47;2.20;;;;;;;34.78;23.18;99440.31;3640885;39;20442;-55
2021/07/01 10:26:23;;;;;;;4.30;2.90;;;;;;;34.57;23.79;99440.84;3620967;39;20445;-60
2021/07/01 10:29:03;;;;;;;4.20;3.15;;;;;;;34.40;23.69;99432.56;3620934;39;20414;-55
2021/07/01 10:31:56;;;;;;;2.75;2.38;;;;;;;34.20;24.54;99444.53;3623169;39;20460;-55
2021/07/01 10:34:51;;;;;;;4.22;2.40;;;;;;;33.96;24.32;99442.78;3609558;39;20470;-50
2021/07/01 10:37:33;;;;;;;6.45;3.95;;;;;;;33.79;24.31;99442.56;3641390;39;20469;-52
2021/07/01 10:40:21;;;;;;;7.07;2.95;;;;;;;33.65;24.52;99441.06;3605909;39;20464;-53
2021/07/01 10:43:00;;;;;;;11.18;3.95;;;;;;;33.46;25.21;99442.94;3638150;39;20431;-47
2021/07/01 10:45:53;;;;;;;4.22;3.17;;;;;;;33.28;25.83;99451.06;3618968;39;20449;-50
2021/07/01 10:48:33;;;;;;;5.05;3.60;;;;;;;33.18;26.32;99451.59;3641720;39;20434;-50
2021/07/01 10:51:14;;;;;;;3.88;2.80;;;;;;;33.09;26.64;99454.81;3631763;39;20428;-51
2021/07/01 10:53:55;;;;;;;4.13;2.80;;;;;;;32.97;26.80;99452.84;3602555;39;20668;-51
2021/07/01 10:56:44;;;;;;;4.07;3.33;;;;;;;32.86;26.67;99448.13;3600616;39;20887;-50
2021/07/01 10:59:23;;;;;;;3.30;2.90;;;;;;;32.70;26.66;99454.94;3620804;31;20431;-50
2021/07/01 11:02:07;;;;;;;3.58;2.53;;;;;;;32.57;26.85;99448.78;3643285;39;20523;-53
2021/07/01 11:04:52;;;;;;;2.97;2.72;;;;;;;32.49;27.42;99454.50;3635204;31;20393;-53
2021/07/01 11:07:42;;;;;;;3.70;2.90;;;;;;;32.43;26.54;99453.47;3610675;31;20436;-53
2021/07/01 11:10:36;;;;;;;6.68;3.25;;;;;;;32.38;27.39;99461.44;3640684;39;20436;-53
2021/07/01 11:13:16;;;;;;;2.67;2.47;;;;;;;32.36;27.88;99464.38;3641838;39;20431;-53
2021/07/01 11:16:06;;;;;;;7.30;4.50;;;;;;;32.31;27.30;99472.34;3641520;39;20430;-50
2021/07/01 11:18:48;;;;;;;2.92;2.63;;;;;;;32.27;27.56;99470.25;3610244;39;20446;-57
2021/07/01 11:21:28;;;;;;;2.95;2.65;;;;;;;32.27;27.50;99475.69;3636553;39;20452;-53
2021/07/01 11:24:14;;;;;;;4.68;3.00;;;;;;;32.24;27.74;99471.50;3603541;39;20452;-62
2021/07/01 11:26:56;;;;;;;3.17;2.30;;;;;;;32.19;27.97;99479.47;3620079;39;20442;-54
2021/07/01 11:29:39;;;;;;;2.63;2.40;;;;;;;32.16;27.64;99479.91;3639668;39;20459;-55
2021/07/01 11:32:22;;;;;;;2.40;2.20;;;;;;;32.14;27.40;99488.25;3640181;39;20443;-56
2021/07/01 11:35:03;;;;;;;5.05;3.67;;;;;;;32.17;27.67;99478.00;3620391;39;20698;-50
2021/07/01 11:37:44;;;;;;;2.72;2.45;;;;;;;32.15;26.96;99480.94;3611170;39;20443;-54
2021/07/01 11:40:25;;;;;;;2.67;2.47;;;;;;;32.13;27.15;99486.59;3636583;39;20444;-53
2021/07/01 11:43:06;;;;;;;2.50;2.30;;;;;;;32.09;27.93;99489.97;3638429;39;20428;-55
2021/07/01 11:45:46;;;;;;;2.80;2.40;;;;;;;32.02;27.69;99487.25;3635218;39;20438;-56
2021/07/01 11:48:31;;;;;;;3.95;2.90;;;;;;;31.98;27.59;99491.47;3641103;39;20749;-53
2021/07/01 11:51:11;;;;;;;2.90;2.67;;;;;;;31.99;27.86;99489.56;3637157;39;20420;-49
2021/07/01 11:53:52;;;;;;;4.38;2.63;;;;;;;32.00;28.12;99488.53;3611053;39;20435;-50
2021/07/01 11:59:30;;;;;;;3.35;2.63;;;;;;;31.95;28.42;99488.34;3631506;39;20451;-49
2021/07/01 12:02:10;;;;;;;3.35;2.80;;;;;;;31.93;28.27;99485.84;3640339;39;20418;-51
2021/07/01 12:04:52;;;;;;;4.35;2.70;;;;;;;31.92;28.39;99496.91;3632334;39;20487;-52
2021/07/01 12:07:35;;;;;;;2.80;2.53;;;;;;;31.90;28.81;99497.13;3640659;39;20455;-52
2021/07/01 12:10:21;;;;;;;2.85;2.50;;;;;;;31.91;28.22;99503.38;3632290;39;20466;-52
2021/07/01 12:13:00;;;;;;;5.15;2.97;;;;;;;31.88;28.43;99503.81;3631942;39;20424;-50
2021/07/01 12:16:00;;;;;;;7.07;3.10;;;;;;;31.79;28.17;99512.16;3639069;39;20461;-48
2021/07/01 12:18:56;;;;;;;4.68;3.05;;;;;;;31.72;28.28;99502.41;3632241;39;20813;-49
2021/07/01 12:21:37;;;;;;;4.28;3.17;;;;;;;31.65;28.79;99501.56;3637615;39;20439;-50
2021/07/01 12:24:22;;;;;;;3.13;2.83;;;;;;;31.63;28.59;99499.06;3639739;39;20436;-50
2021/07/01 12:27:03;;;;;;;4.07;3.00;;;;;;;31.63;29.00;99496.34;3618155;39;20418;-50
2021/07/01 12:29:49;;;;;;;4.50;2.83;;;;;;;31.61;28.84;99503.84;3624895;39;21016;-48
2021/07/01 12:32:29;;;;;;;4.95;2.70;;;;;;;31.56;28.99;99500.97;3634688;39;20442;-52
2021/07/01 12:35:42;;;;;;;3.47;2.67;;;;;;;31.47;29.29;99510.38;3585021;39;2061933;-50
2021/07/01 12:38:22;;;;;;;3.20;2.90;;;;;;;31.42;29.05;99511.00;3611433;39;20383;-52
2021/07/01 12:41:04;;;;;;;3.22;2.78;;;;;;;31.36;29.46;99509.13;3619872;39;20437;-48
2021/07/01 12:43:57;;;;;;;3.03;2.50;;;;;;;31.30;29.60;99511.88;3611503;39;20680;-48